Terminal Aerodrome Forecast
Issued by NWS Jacksonville, FL

Home | Current Version | Previous Version | Text Only | Print | Product List | Glossary On
Versions: 1 2 3 4 5 6 7 8 9 10 11 12 13 14 15 16 17 18 19
100
FTUS42 KJAX 312321
TAFGNV
TAF
KGNV 312321Z 0100/0124 VRB06KT P6SM VCTS SCT035CB SCT100
      TEMPO 0100/0101 VRB20G30KT 2SM TSRA OVC030CB
     FM010200 VRB03KT P6SM FEW040 SCT100
      TEMPO 0109/0112 4SM BR
     FM011930 27007KT P6SM VCTS SCT050CB SCT250=

USA.gov is the U.S. government's official web portal to all federal, state and local government web resources and services.